Time;durP1;ratioP1;P1;durP2;ratioP2;P2;SDS_P1;SDS_P2;PMS_P1;PMS_P2;Temp;Humidity;BMP_temperature;BMP_pressure;BME280_temperature;BME280_humidity;BME280_pressure;Samples;Min_cycle;Max_cycle;Signal;HPM_P1;HPM_P2
2023/06/29 00:02:19;;;;;;;2.10;1.55;;;;;;;16.27;67.95;100385.06;5046748;28;20032;-56
2023/06/29 00:04:45;;;;;;;7.32;1.50;;;;;;;16.20;68.21;100387.03;5046492;28;20029;-52
2023/06/29 00:07:10;;;;;;;3.28;2.15;;;;;;;16.19;68.14;100381.84;5046720;28;20021;-58
2023/06/29 00:09:36;;;;;;;5.50;1.92;;;;;;;16.24;67.86;100385.19;5046573;28;20048;-56
2023/06/29 00:12:01;;;;;;;6.13;1.30;;;;;;;16.22;68.03;100385.22;5046465;28;20096;-57
2023/06/29 00:14:27;;;;;;;4.30;1.70;;;;;;;16.21;68.17;100380.03;5046612;28;20029;-57
2023/06/29 00:16:52;;;;;;;3.40;1.70;;;;;;;16.21;68.58;100378.25;5046379;28;20140;-58
2023/06/29 00:19:20;;;;;;;3.30;1.80;;;;;;;16.29;68.24;100377.16;5046388;28;20025;-58
2023/06/29 00:21:47;;;;;;;4.93;1.80;;;;;;;16.32;68.12;100372.69;5046273;28;20047;-58
2023/06/29 00:24:13;;;;;;;2.70;1.33;;;;;;;16.42;68.07;100373.22;5046302;28;20033;-57
2023/06/29 00:26:39;;;;;;;3.85;1.55;;;;;;;16.42;68.08;100370.59;5046378;28;20026;-58
2023/06/29 00:29:05;;;;;;;2.90;1.75;;;;;;;16.40;67.80;100366.31;5046294;28;20034;-54
2023/06/29 00:31:31;;;;;;;6.18;1.88;;;;;;;16.38;67.90;100368.13;5046190;28;20493;-57
2023/06/29 00:33:56;;;;;;;3.08;1.65;;;;;;;16.33;67.64;100358.69;5046084;28;20029;-57
2023/06/29 00:36:22;;;;;;;7.60;1.85;;;;;;;16.37;67.56;100358.56;5045880;28;20045;-57
2023/06/29 00:38:48;;;;;;;1.70;1.52;;;;;;;16.31;67.58;100350.00;5046176;28;20081;-59
2023/06/29 00:41:14;;;;;;;2.42;1.70;;;;;;;16.27;67.59;100353.66;5045905;28;20053;-59
2023/06/29 00:43:43;;;;;;;5.20;1.60;;;;;;;16.23;67.61;100355.50;5046115;28;20029;-57
2023/06/29 00:46:10;;;;;;;4.60;2.05;;;;;;;16.17;67.86;100347.84;5046177;28;20029;-58
2023/06/29 00:48:36;;;;;;;4.60;1.60;;;;;;;16.16;67.90;100350.50;5045789;28;20033;-58
2023/06/29 00:51:04;;;;;;;6.63;2.25;;;;;;;16.10;68.45;100344.56;5045587;28;20044;-57
2023/06/29 00:53:29;;;;;;;2.22;1.40;;;;;;;16.03;68.42;100345.69;5045870;28;20039;-58
2023/06/29 00:55:56;;;;;;;2.40;1.60;;;;;;;15.98;68.36;100350.19;5045951;28;20053;-58
2023/06/29 00:58:21;;;;;;;2.63;1.70;;;;;;;15.89;68.23;100329.53;5045710;28;20081;-58
2023/06/29 01:00:47;;;;;;;3.20;1.92;;;;;;;15.96;69.03;100334.50;5045648;28;20113;-58
2023/06/29 01:03:13;;;;;;;2.55;1.73;;;;;;;15.89;68.80;100337.38;5044550;28;20533;-57
2023/06/29 01:05:39;;;;;;;3.85;1.77;;;;;;;15.89;68.98;100334.75;5045407;28;20025;-57
2023/06/29 01:08:11;;;;;;;3.05;2.58;;;;;;;15.91;68.99;100332.97;5045803;28;20029;-57
2023/06/29 01:10:37;;;;;;;5.13;2.03;;;;;;;15.94;69.19;100338.94;5045485;28;20022;-58
2023/06/29 01:13:04;;;;;;;3.60;2.15;;;;;;;15.94;69.02;100335.47;5045387;28;20052;-58
2023/06/29 01:15:30;;;;;;;3.65;1.60;;;;;;;15.96;68.91;100333.66;5045567;28;20025;-58
2023/06/29 01:17:58;;;;;;;2.47;1.98;;;;;;;15.95;68.81;100329.31;5045474;28;20059;-57
2023/06/29 01:20:26;;;;;;;4.15;2.08;;;;;;;15.98;68.97;100324.03;5045142;28;20155;-58
2023/06/29 01:23:23;;;;;;;4.35;2.28;;;;;;;16.04;69.24;100326.44;5045369;28;20029;-57
2023/06/29 01:25:50;;;;;;;4.43;1.83;;;;;;;16.04;69.08;100326.44;5033637;28;20044;-56
2023/06/29 01:28:16;;;;;;;3.55;1.77;;;;;;;16.06;69.32;100318.53;5045193;28;20076;-59
2023/06/29 01:30:48;;;;;;;3.67;2.15;;;;;;;16.13;69.25;100321.81;5045381;28;20024;-56
2023/06/29 01:33:14;;;;;;;;;;;;;;;16.20;69.22;100313.69;5045525;28;20500;-55
2023/06/29 01:35:40;;;;;;;2.95;2.00;;;;;;;16.19;68.96;100316.38;5044924;28;19917;-57
2023/06/29 01:38:13;;;;;;;1.80;1.58;;;;;;;16.18;68.95;100312.03;5045277;28;20312;-58
2023/06/29 01:40:44;;;;;;;2.65;1.50;;;;;;;16.21;69.44;100311.94;5045084;28;20051;-58
2023/06/29 01:43:09;;;;;;;5.50;2.13;;;;;;;16.22;69.19;100303.16;5045088;28;20056;-57
2023/06/29 01:45:36;;;;;;;2.08;1.90;;;;;;;16.25;69.13;100308.28;5045178;28;20250;-57
2023/06/29 01:48:01;;;;;;;3.33;2.10;;;;;;;16.25;68.92;100302.19;5044936;28;20391;-58
2023/06/29 01:50:27;;;;;;;4.45;1.48;;;;;;;16.26;68.96;100306.53;5044879;28;20017;-58
2023/06/29 01:52:53;;;;;;;2.50;1.55;;;;;;;16.27;69.33;100298.63;5044769;28;20022;-55
2023/06/29 01:55:19;;;;;;;4.18;1.85;;;;;;;16.31;69.53;100302.84;5044906;28;20091;-58
2023/06/29 01:57:45;;;;;;;8.32;2.13;;;;;;;16.35;69.59;100299.22;5044903;28;20029;-56
2023/06/29 02:00:11;;;;;;;8.90;2.70;;;;;;;16.38;69.51;100297.41;5044841;28;20022;-60
2023/06/29 02:02:37;;;;;;;3.75;2.13;;;;;;;16.46;69.46;100298.00;5044942;28;20040;-59
2023/06/29 02:05:03;;;;;;;4.10;1.77;;;;;;;16.51;69.71;100301.31;5044594;28;20029;-57
2023/06/29 02:07:29;;;;;;;3.42;1.58;;;;;;;16.53;69.29;100294.25;5044909;28;20081;-58
2023/06/29 02:09:54;;;;;;;3.30;1.92;;;;;;;16.55;69.77;100291.59;5044787;28;20030;-58
2023/06/29 02:12:20;;;;;;;9.68;1.90;;;;;;;16.60;69.71;100297.50;5044941;28;20040;-57
2023/06/29 02:14:45;;;;;;;5.50;2.10;;;;;;;16.63;69.84;100292.16;5047944;28;20018;-56
2023/06/29 02:17:10;;;;;;;10.52;1.95;;;;;;;16.67;69.90;100287.66;5048617;28;20021;-58
2023/06/29 02:19:36;;;;;;;2.25;1.83;;;;;;;16.69;69.42;100285.84;5048659;28;20080;-56
2023/06/29 02:22:01;;;;;;;5.38;2.20;;;;;;;16.69;69.41;100286.69;5048459;28;20029;-57
2023/06/29 02:24:27;;;;;;;2.92;2.00;;;;;;;16.71;69.58;100289.25;5048528;28;20025;-58
2023/06/29 02:26:52;;;;;;;2.88;1.95;;;;;;;16.67;69.32;100287.66;5048563;28;20215;-58
2023/06/29 02:29:18;;;;;;;3.78;1.63;;;;;;;16.63;69.33;100286.91;5048415;28;20068;-58
2023/06/29 02:31:43;;;;;;;5.45;1.77;;;;;;;16.56;69.53;100286.28;5048413;28;20036;-58
2023/06/29 02:34:09;;;;;;;4.03;2.05;;;;;;;16.57;69.79;100290.63;5046874;28;20045;-57
2023/06/29 02:36:34;;;;;;;5.05;1.77;;;;;;;16.52;69.80;100292.53;5048240;28;20164;-57
2023/06/29 02:38:59;;;;;;;10.23;1.95;;;;;;;16.53;69.99;100294.25;5048278;28;20423;-56
2023/06/29 02:41:25;;;;;;;2.55;1.70;;;;;;;16.46;70.25;100284.88;5048117;28;20030;-57
2023/06/29 02:43:50;;;;;;;7.70;2.22;;;;;;;16.54;70.04;100285.47;5048261;28;20035;-57
2023/06/29 02:46:16;;;;;;;4.53;1.77;;;;;;;16.59;70.22;100283.56;5048301;28;20072;-57
2023/06/29 02:48:41;;;;;;;4.10;1.75;;;;;;;16.62;70.10;100279.09;5048127;28;20086;-57
2023/06/29 02:51:07;;;;;;;8.57;1.90;;;;;;;16.66;69.95;100283.34;5047897;28;20075;-58
2023/06/29 02:53:32;;;;;;;1.98;1.55;;;;;;;16.69;69.83;100278.00;5047908;28;20029;-57
2023/06/29 02:55:57;;;;;;;4.95;1.90;;;;;;;16.72;69.74;100283.13;5047934;28;20484;-57
2023/06/29 02:58:23;;;;;;;7.50;1.80;;;;;;;16.69;70.03;100270.13;5047992;28;20026;-58
2023/06/29 03:00:48;;;;;;;2.63;1.95;;;;;;;16.71;70.22;100278.75;5047957;28;20081;-59
2023/06/29 03:03:14;;;;;;;4.50;1.77;;;;;;;16.71;70.07;100273.53;5047760;28;20033;-58
2023/06/29 03:05:39;;;;;;;2.75;1.98;;;;;;;16.73;69.98;100274.34;5047669;28;20050;-58
2023/06/29 03:08:04;;;;;;;5.13;2.10;;;;;;;16.73;70.24;100271.72;5047689;28;20029;-58
2023/06/29 03:10:30;;;;;;;4.38;2.00;;;;;;;16.73;70.14;100276.94;5047653;28;20462;-58
2023/06/29 03:12:55;;;;;;;3.67;1.77;;;;;;;16.64;70.41;100266.81;5047707;28;20075;-58
2023/06/29 03:15:21;;;;;;;1.75;1.50;;;;;;;16.63;70.24;100272.97;5047672;28;20335;-58
2023/06/29 03:17:46;;;;;;;2.33;1.73;;;;;;;16.60;70.41;100272.16;5047558;28;20076;-57
2023/06/29 03:20:13;;;;;;;3.60;2.42;;;;;;;16.57;70.52;100269.66;5047264;28;20025;-58
2023/06/29 03:22:39;;;;;;;2.30;1.80;;;;;;;16.56;71.17;100267.94;5047576;28;20017;-54
2023/06/29 03:25:06;;;;;;;4.13;1.65;;;;;;;16.48;71.75;100262.94;5046526;28;20024;-57
2023/06/29 03:27:31;;;;;;;4.82;1.77;;;;;;;16.41;72.09;100261.47;5047234;28;20192;-56
2023/06/29 03:29:57;;;;;;;5.43;3.17;;;;;;;16.38;72.58;100266.81;5047377;28;20108;-58
2023/06/29 03:32:22;;;;;;;6.20;2.28;;;;;;;16.32;72.84;100273.16;5047336;28;20017;-58
2023/06/29 03:34:48;;;;;;;3.75;2.22;;;;;;;16.27;73.27;100264.59;5047026;28;20042;-59
2023/06/29 03:37:13;;;;;;;6.50;2.63;;;;;;;16.25;73.32;100261.16;5045629;28;20064;-60
2023/06/29 03:39:39;;;;;;;1.88;1.58;;;;;;;16.27;73.42;100261.09;5047403;28;20029;-56
2023/06/29 03:42:04;;;;;;;5.00;2.05;;;;;;;16.25;73.69;100257.66;5047094;28;20081;-59
2023/06/29 03:44:30;;;;;;;2.53;2.15;;;;;;;16.18;74.21;100259.66;5047051;28;20045;-55
2023/06/29 03:46:55;;;;;;;2.33;1.88;;;;;;;16.13;74.30;100262.44;5046935;28;20448;-58
2023/06/29 03:49:20;;;;;;;7.25;2.20;;;;;;;16.09;74.66;100261.69;5046975;28;20022;-58
2023/06/29 03:51:46;;;;;;;2.58;2.03;;;;;;;16.07;74.94;100260.88;5046850;28;20037;-58
2023/06/29 03:54:11;;;;;;;8.90;2.35;;;;;;;15.97;75.28;100257.69;5046976;28;20025;-59
2023/06/29 03:56:36;;;;;;;8.07;2.17;;;;;;;15.98;75.11;100258.56;5046930;28;20036;-59
2023/06/29 03:59:02;;;;;;;2.80;1.92;;;;;;;16.06;75.11;100256.56;5045585;28;20025;-58
2023/06/29 04:01:28;;;;;;;5.97;1.83;;;;;;;16.13;74.81;100256.34;5046660;28;20021;-58
2023/06/29 04:03:53;;;;;;;3.42;1.92;;;;;;;16.23;74.58;100255.09;5046652;28;20096;-58
2023/06/29 04:06:19;;;;;;;6.70;1.95;;;;;;;16.30;74.86;100250.50;5046454;28;20022;-57
2023/06/29 04:08:44;;;;;;;7.43;2.75;;;;;;;16.38;74.77;100258.97;5028687;28;20025;-57
2023/06/29 04:11:11;;;;;;;7.35;2.65;;;;;;;16.40;74.93;100248.44;5046441;28;20051;-57
2023/06/29 04:13:37;;;;;;;2.60;1.95;;;;;;;16.44;74.70;100250.03;5046545;28;20029;-56
2023/06/29 04:16:02;;;;;;;8.35;2.22;;;;;;;16.46;74.85;100248.22;5046665;28;20048;-57
2023/06/29 04:18:28;;;;;;;9.70;2.33;;;;;;;16.51;74.67;100250.66;5046460;28;20036;-57
2023/06/29 04:20:53;;;;;;;8.10;2.13;;;;;;;16.50;74.92;100249.84;5046221;28;20089;-55
2023/06/29 04:23:19;;;;;;;3.80;1.98;;;;;;;16.60;74.77;100248.56;5046257;28;20036;-58
2023/06/29 04:25:44;;;;;;;9.95;1.80;;;;;;;16.69;75.17;100254.41;5046747;28;20028;-58
2023/06/29 04:28:12;;;;;;;8.05;2.35;;;;;;;16.82;75.03;100250.41;5046171;28;20601;-59
2023/06/29 04:30:43;;;;;;;2.90;2.15;;;;;;;16.94;74.73;100249.09;5046236;28;20036;-58
2023/06/29 04:33:10;;;;;;;2.90;2.05;;;;;;;17.02;74.91;100248.81;5045407;28;20076;-57
2023/06/29 04:35:39;;;;;;;3.38;2.22;;;;;;;17.16;74.39;100252.69;5045803;28;20095;-58
2023/06/29 04:38:06;;;;;;;3.42;2.38;;;;;;;17.25;74.71;100252.34;5045972;28;20025;-59
2023/06/29 04:40:31;;;;;;;3.83;1.95;;;;;;;17.38;74.73;100252.69;5045765;28;20462;-59
2023/06/29 04:42:57;;;;;;;9.20;2.03;;;;;;;17.50;75.12;100250.50;5045888;28;20040;-59
2023/06/29 04:45:24;;;;;;;2.03;1.63;;;;;;;17.62;74.28;100249.16;5045997;28;20029;-58
2023/06/29 04:47:50;;;;;;;3.17;2.15;;;;;;;17.69;74.18;100235.72;5046102;28;20026;-58
2023/06/29 04:50:15;;;;;;;2.25;1.60;;;;;;;17.82;73.90;100251.84;5045679;28;20021;-58
2023/06/29 04:52:41;;;;;;;3.42;2.03;;;;;;;17.84;73.95;100242.09;5045784;28;20052;-59
2023/06/29 04:55:08;;;;;;;3.47;1.52;;;;;;;17.96;74.01;100251.25;5045646;28;20033;-57
2023/06/29 04:57:34;;;;;;;1.50;1.25;;;;;;;18.04;74.34;100253.56;5045796;28;20104;-58
2023/06/29 04:59:59;;;;;;;5.55;2.05;;;;;;;18.09;74.08;100237.59;5045667;28;20151;-58
2023/06/29 05:02:25;;;;;;;3.15;2.05;;;;;;;18.17;73.91;100246.03;5045698;28;20025;-57
2023/06/29 05:04:50;;;;;;;4.20;1.80;;;;;;;18.21;74.05;100238.88;5045922;28;20045;-59
2023/06/29 05:07:16;;;;;;;5.57;1.98;;;;;;;18.26;73.88;100236.88;5045304;28;20420;-60
2023/06/29 05:09:42;;;;;;;4.70;1.98;;;;;;;18.23;73.53;100239.66;5045358;28;20423;-60
2023/06/29 05:12:09;;;;;;;6.70;1.63;;;;;;;18.19;73.62;100238.09;5045420;28;20022;-60
2023/06/29 05:14:34;;;;;;;3.03;2.10;;;;;;;18.16;73.73;100239.06;5045592;28;20029;-60
2023/06/29 05:17:00;;;;;;;3.75;2.47;;;;;;;18.08;73.17;100231.47;5045490;28;20052;-61
2023/06/29 05:19:25;;;;;;;3.95;2.47;;;;;;;18.09;73.45;100235.84;5045298;28;20033;-61
2023/06/29 05:21:51;;;;;;;3.05;2.35;;;;;;;18.05;73.38;100244.75;5045110;28;20116;-60
2023/06/29 05:24:16;;;;;;;4.00;2.50;;;;;;;18.06;73.45;100237.72;5027664;28;20025;-60
2023/06/29 05:26:42;;;;;;;7.88;2.22;;;;;;;18.05;73.54;100236.84;5045458;28;20044;-58
2023/06/29 05:29:07;;;;;;;3.13;1.98;;;;;;;18.05;73.53;100234.25;5045328;28;20017;-59
2023/06/29 05:31:33;;;;;;;4.38;2.70;;;;;;;18.11;73.86;100240.16;5045156;28;20021;-59
2023/06/29 05:33:58;;;;;;;4.78;2.30;;;;;;;18.14;73.92;100246.16;5044981;28;20048;-59
2023/06/29 05:36:23;;;;;;;3.88;2.78;;;;;;;18.18;74.07;100245.09;5045248;28;20040;-59
2023/06/29 05:38:49;;;;;;;3.05;2.20;;;;;;;18.23;74.45;100244.06;5045266;28;20025;-58
2023/06/29 05:41:14;;;;;;;5.65;2.85;;;;;;;18.21;74.47;100239.72;5044889;28;20022;-59
2023/06/29 05:43:39;;;;;;;3.80;2.13;;;;;;;18.24;74.22;100241.38;5045064;28;20026;-60
2023/06/29 05:46:05;;;;;;;3.67;2.42;;;;;;;18.26;74.28;100236.88;5045056;28;20041;-60
2023/06/29 05:48:30;;;;;;;4.43;2.58;;;;;;;18.28;73.89;100237.69;5044452;28;20075;-60
2023/06/29 05:50:56;;;;;;;5.03;2.15;;;;;;;18.29;74.80;100234.13;5044873;28;20049;-60
2023/06/29 05:53:21;;;;;;;5.57;2.70;;;;;;;18.38;74.14;100247.78;5044896;28;20097;-60
2023/06/29 05:55:47;;;;;;;4.88;3.20;;;;;;;18.44;74.65;100232.63;5044930;28;20108;-60
2023/06/29 05:58:12;;;;;;;3.67;2.70;;;;;;;18.49;75.91;100226.28;5045173;28;20435;-60
2023/06/29 06:00:38;;;;;;;6.30;3.58;;;;;;;18.53;76.76;100227.88;5045019;28;20025;-59
2023/06/29 06:03:03;;;;;;;7.63;3.03;;;;;;;18.58;77.61;100224.09;5044826;28;20082;-59
2023/06/29 06:05:29;;;;;;;4.97;2.72;;;;;;;18.64;77.58;100216.88;5044737;28;20025;-60
2023/06/29 06:07:54;;;;;;;4.25;3.00;;;;;;;18.72;78.59;100220.00;5045030;28;20029;-59
2023/06/29 06:10:20;;;;;;;4.43;2.25;;;;;;;18.79;78.41;100216.16;5044956;28;20025;-60
2023/06/29 06:12:45;;;;;;;9.38;3.28;;;;;;;18.87;78.31;100223.69;5044947;28;20026;-60
2023/06/29 06:15:13;;;;;;;3.40;2.22;;;;;;;18.98;78.52;100225.00;5044906;28;20025;-59
2023/06/29 06:17:39;;;;;;;6.95;3.00;;;;;;;19.05;78.22;100234.28;5045026;28;20311;-60
2023/06/29 06:20:05;;;;;;;6.20;2.75;;;;;;;19.06;78.44;100225.47;5044957;28;20053;-60
2023/06/29 06:22:30;;;;;;;7.85;2.95;;;;;;;19.03;78.43;100226.47;5044616;28;20428;-59
2023/06/29 06:24:56;;;;;;;5.47;3.03;;;;;;;19.01;78.65;100223.03;5044863;28;20033;-60
2023/06/29 06:27:21;;;;;;;2.85;2.13;;;;;;;19.07;78.62;100229.81;5044825;28;20025;-59
2023/06/29 06:29:47;;;;;;;3.97;2.65;;;;;;;19.11;78.20;100233.16;5044853;28;20055;-60
2023/06/29 06:32:12;;;;;;;5.65;2.42;;;;;;;19.11;78.25;100236.66;5044773;28;20021;-60
2023/06/29 06:34:38;;;;;;;5.05;2.85;;;;;;;19.07;78.29;100240.34;5044610;28;20041;-60
2023/06/29 06:37:04;;;;;;;4.43;2.55;;;;;;;18.99;78.46;100229.31;5044400;28;20079;-61
2023/06/29 06:39:32;;;;;;;3.17;2.25;;;;;;;18.95;79.04;100233.84;5043514;28;20097;-60
2023/06/29 06:41:59;;;;;;;7.38;2.17;;;;;;;18.95;79.05;100223.34;5044671;28;20025;-60
2023/06/29 06:44:25;;;;;;;2.63;2.00;;;;;;;18.99;78.54;100231.94;5044592;28;20030;-60
2023/06/29 06:46:50;;;;;;;6.95;2.25;;;;;;;18.98;79.02;100230.25;5044782;28;20028;-60
2023/06/29 06:49:16;;;;;;;3.97;2.60;;;;;;;18.95;79.24;100226.81;5044546;28;20041;-59
2023/06/29 06:51:41;;;;;;;4.40;2.45;;;;;;;18.97;79.04;100237.28;5044313;28;20384;-59
2023/06/29 06:54:06;;;;;;;4.15;2.42;;;;;;;18.94;79.47;100230.41;5044501;28;20029;-59
2023/06/29 06:56:32;;;;;;;3.38;2.25;;;;;;;19.00;79.48;100237.13;5044671;28;20032;-60
2023/06/29 06:58:57;;;;;;;3.83;2.10;;;;;;;19.11;79.39;100236.66;5044577;28;20027;-59
2023/06/29 07:01:24;;;;;;;3.45;2.15;;;;;;;19.12;78.73;100234.88;5046855;28;20113;-60
2023/06/29 07:03:51;;;;;;;4.50;2.67;;;;;;;19.03;78.78;100244.00;5048114;28;20075;-60
2023/06/29 07:06:17;;;;;;;2.45;2.13;;;;;;;18.87;79.14;100236.84;5047678;28;20025;-60
2023/06/29 07:08:42;;;;;;;2.60;2.00;;;;;;;18.77;79.56;100232.94;5047966;28;20025;-59
2023/06/29 07:11:08;;;;;;;2.95;2.28;;;;;;;18.71;80.44;100234.06;5047846;28;20029;-60
2023/06/29 07:13:33;;;;;;;4.35;2.63;;;;;;;18.65;80.52;100229.94;5047851;28;20029;-60
2023/06/29 07:15:59;;;;;;;3.65;2.33;;;;;;;18.60;80.26;100236.31;5048052;28;20033;-60
2023/06/29 07:18:24;;;;;;;4.15;2.25;;;;;;;18.45;81.09;100229.06;5047719;28;20052;-60
2023/06/29 07:20:50;;;;;;;3.58;2.63;;;;;;;18.39;81.00;100228.47;5047544;28;20025;-59
2023/06/29 07:23:16;;;;;;;6.03;2.15;;;;;;;18.31;82.34;100226.19;5047659;28;20108;-59
2023/06/29 07:25:41;;;;;;;6.13;2.85;;;;;;;18.33;82.47;100226.97;5046308;28;20033;-59
2023/06/29 07:28:07;;;;;;;3.45;2.70;;;;;;;18.41;82.42;100218.75;5047619;28;20021;-58
2023/06/29 07:30:32;;;;;;;5.35;2.90;;;;;;;18.47;82.79;100228.97;5047519;28;20087;-61
2023/06/29 07:32:58;;;;;;;4.93;3.10;;;;;;;18.55;83.26;100226.88;5047420;28;20021;-59
2023/06/29 07:35:23;;;;;;;3.78;2.58;;;;;;;18.63;84.01;100230.91;5047029;28;20077;-59
2023/06/29 07:37:49;;;;;;;4.57;3.15;;;;;;;18.71;84.17;100218.28;5047699;28;20075;-60
2023/06/29 07:40:14;;;;;;;3.85;2.92;;;;;;;18.83;84.24;100222.97;5047423;28;20022;-60
2023/06/29 07:42:39;;;;;;;9.05;2.70;;;;;;;19.03;84.06;100220.34;5047207;28;20027;-60
2023/06/29 07:45:06;;;;;;;3.50;2.75;;;;;;;19.21;84.10;100226.56;5047123;28;20052;-59
2023/06/29 07:47:31;;;;;;;2.85;2.30;;;;;;;19.37;83.90;100225.81;5047149;28;20025;-60
2023/06/29 07:49:57;;;;;;;5.20;2.15;;;;;;;19.49;83.13;100225.22;5047214;28;20021;-60
2023/06/29 07:52:22;;;;;;;3.70;2.28;;;;;;;19.54;82.95;100224.97;5047056;28;20040;-60
2023/06/29 07:54:51;;;;;;;2.40;2.15;;;;;;;19.49;82.64;100214.69;5047042;28;20022;-60
2023/06/29 07:57:16;;;;;;;2.92;2.30;;;;;;;19.72;82.33;100217.97;5046728;28;20025;-60
2023/06/29 07:59:42;;;;;;;4.78;2.65;;;;;;;19.92;82.52;100213.47;5046697;28;20424;-60
2023/06/29 08:02:07;;;;;;;3.65;2.38;;;;;;;20.13;82.26;100219.44;5046745;28;20040;-60
2023/06/29 08:04:33;;;;;;;3.30;2.15;;;;;;;20.28;81.87;100207.25;5046730;28;20021;-60
2023/06/29 08:06:58;;;;;;;5.07;2.17;;;;;;;20.52;81.09;100213.94;5046551;28;20083;-60
2023/06/29 08:09:24;;;;;;;4.60;2.40;;;;;;;20.61;80.07;100209.94;5046871;28;20033;-60
2023/06/29 08:11:49;;;;;;;5.47;2.67;;;;;;;20.79;78.93;100211.59;5046135;28;20075;-60
2023/06/29 08:14:15;;;;;;;5.13;2.42;;;;;;;20.95;77.58;100215.19;5046427;28;20378;-61
2023/06/29 08:16:40;;;;;;;3.10;2.22;;;;;;;21.11;77.15;100215.19;5046572;28;20022;-60
2023/06/29 08:19:06;;;;;;;5.68;2.53;;;;;;;21.28;75.20;100217.75;5046422;28;20021;-60
2023/06/29 08:21:31;;;;;;;3.63;2.55;;;;;;;21.48;75.49;100209.63;5046164;28;20030;-60
2023/06/29 08:23:56;;;;;;;3.50;2.17;;;;;;;21.59;75.20;100203.72;5046325;28;20109;-59
2023/06/29 08:26:22;;;;;;;3.63;2.17;;;;;;;21.70;74.39;100211.88;5046434;28;20101;-60
2023/06/29 08:28:47;;;;;;;4.50;2.40;;;;;;;21.93;74.80;100201.75;5046254;28;20105;-59
2023/06/29 08:31:13;;;;;;;2.17;1.77;;;;;;;22.29;74.41;100197.81;5046326;28;20028;-60
2023/06/29 08:33:39;;;;;;;2.67;2.00;;;;;;;22.67;73.88;100206.13;5046184;28;20053;-60
2023/06/29 08:36:04;;;;;;;2.75;2.15;;;;;;;22.81;73.55;100213.22;5045916;28;20065;-60
2023/06/29 08:38:30;;;;;;;5.82;2.45;;;;;;;22.78;73.12;100208.97;5046228;28;20029;-60
2023/06/29 08:41:01;;;;;;;3.65;2.40;;;;;;;22.54;70.55;100204.22;5045980;28;20029;-59
2023/06/29 08:43:26;;;;;;;3.17;2.28;;;;;;;22.25;70.17;100203.41;5046003;28;20033;-59
2023/06/29 08:45:52;;;;;;;4.57;2.35;;;;;;;21.93;69.81;100204.41;5046045;28;20032;-60
2023/06/29 08:48:18;;;;;;;2.15;1.70;;;;;;;21.68;69.31;100208.44;5045965;28;20025;-59
2023/06/29 08:51:02;;;;;;;2.65;2.25;;;;;;;21.39;69.75;100209.19;5045837;28;20021;-61
2023/06/29 08:53:28;;;;;;;2.92;2.03;;;;;;;21.12;70.09;100214.28;5045795;28;20032;-60
2023/06/29 08:55:53;;;;;;;4.88;2.67;;;;;;;20.89;70.60;100205.81;5045753;28;20034;-60
2023/06/29 08:58:22;;;;;;;3.92;2.40;;;;;;;20.60;71.77;100208.25;5045995;28;20033;-59
2023/06/29 09:00:49;;;;;;;3.33;2.28;;;;;;;20.42;72.37;100213.56;5045665;28;20052;-59
2023/06/29 09:03:14;;;;;;;3.03;2.10;;;;;;;20.29;72.74;100210.72;5045625;28;20089;-59
2023/06/29 09:05:45;;;;;;;3.50;2.28;;;;;;;20.17;73.29;100221.00;5045353;28;20052;-61
2023/06/29 09:08:11;;;;;;;4.18;2.67;;;;;;;20.12;74.21;100222.16;5045749;28;20025;-60
2023/06/29 09:10:38;;;;;;;2.88;2.28;;;;;;;20.17;74.18;100217.50;5045527;28;20050;-60
2023/06/29 09:13:05;;;;;;;5.15;2.90;;;;;;;20.22;74.36;100222.53;5045629;28;20044;-59
2023/06/29 09:15:31;;;;;;;3.10;2.08;;;;;;;20.24;74.47;100232.06;5045660;28;20032;-60
2023/06/29 09:17:57;;;;;;;4.68;2.40;;;;;;;20.20;74.62;100214.72;5045448;28;20060;-60
2023/06/29 09:20:27;;;;;;;4.90;2.40;;;;;;;20.22;74.33;100222.53;5045367;28;20026;-60
2023/06/29 09:22:53;;;;;;;4.75;2.90;;;;;;;20.16;74.66;100227.19;5044595;28;20028;-60
2023/06/29 09:25:21;;;;;;;5.78;3.10;;;;;;;20.10;74.61;100224.00;5045317;28;20025;-60
2023/06/29 09:27:47;;;;;;;3.88;3.10;;;;;;;20.05;75.11;100219.84;5045553;28;20064;-60
2023/06/29 09:30:18;;;;;;;4.80;2.67;;;;;;;19.97;75.08;100216.72;5045456;28;20021;-60
2023/06/29 09:32:44;;;;;;;3.38;2.67;;;;;;;20.00;75.31;100224.44;5045417;28;20095;-60
2023/06/29 09:35:09;;;;;;;2.78;2.25;;;;;;;19.98;75.20;100213.16;5045314;28;20037;-60
2023/06/29 09:37:36;;;;;;;4.65;2.70;;;;;;;20.02;75.62;100214.72;5045292;28;20029;-59
2023/06/29 09:40:09;;;;;;;3.58;2.30;;;;;;;20.13;75.38;100219.44;5045337;28;20029;-59
2023/06/29 09:42:37;;;;;;;4.90;2.85;;;;;;;20.19;75.57;100216.47;5045332;28;20033;-61
2023/06/29 09:45:14;;;;;;;4.00;3.00;;;;;;;20.27;75.00;100221.34;5045132;28;20026;-60
2023/06/29 09:47:47;;;;;;;6.95;2.95;;;;;;;20.35;75.57;100220.94;5045374;28;20053;-60
2023/06/29 09:50:20;;;;;;;3.22;2.63;;;;;;;20.46;75.22;100220.41;5045246;28;20105;-60
2023/06/29 09:52:47;;;;;;;3.13;1.98;;;;;;;20.53;74.59;100221.75;5044952;28;20040;-60
2023/06/29 09:55:14;;;;;;;3.22;2.50;;;;;;;20.63;74.34;100221.25;5045072;28;20036;-59
2023/06/29 09:57:45;;;;;;;3.05;2.47;;;;;;;20.71;73.99;100223.50;5045126;28;20031;-60
2023/06/29 10:00:11;;;;;;;4.72;2.40;;;;;;;20.73;74.09;100216.34;5045124;28;20052;-60
2023/06/29 10:02:38;;;;;;;2.83;2.33;;;;;;;20.68;73.63;100214.81;5044921;28;20060;-60
2023/06/29 10:05:04;;;;;;;2.90;1.80;;;;;;;20.74;73.74;100197.81;5044975;28;20434;-59
2023/06/29 10:07:30;;;;;;;2.88;2.00;;;;;;;20.91;73.26;100211.88;5044820;28;20445;-59
2023/06/29 10:09:57;;;;;;;3.78;2.05;;;;;;;20.92;73.18;100205.66;5045039;28;20030;-60
2023/06/29 10:12:26;;;;;;;3.03;2.15;;;;;;;20.99;72.58;100211.47;5044915;28;20017;-59
2023/06/29 10:14:55;;;;;;;3.17;2.22;;;;;;;21.03;71.92;100205.94;5044965;28;20049;-60
2023/06/29 10:17:30;;;;;;;6.85;2.72;;;;;;;21.20;72.17;100208.56;5044928;28;20100;-60
2023/06/29 10:19:57;;;;;;;4.30;2.78;;;;;;;21.49;72.37;100204.25;5044892;28;20028;-60
2023/06/29 10:22:26;;;;;;;2.38;1.95;;;;;;;21.67;71.68;100190.91;5044603;28;20427;-60
2023/06/29 10:25:06;;;;;;;3.67;2.30;;;;;;;21.89;70.85;100200.22;5044839;28;20033;-60
2023/06/29 10:27:34;;;;;;;3.47;2.30;;;;;;;21.99;70.48;100200.53;5044926;28;20025;-60
2023/06/29 10:30:03;;;;;;;3.95;2.50;;;;;;;22.06;69.82;100198.38;5044835;28;20029;-60
2023/06/29 10:32:39;;;;;;;2.50;1.95;;;;;;;21.96;68.87;100196.28;5044886;28;20081;-59
2023/06/29 10:35:08;;;;;;;3.47;2.10;;;;;;;22.05;68.95;100200.16;5046710;28;20093;-61
2023/06/29 10:37:40;;;;;;;4.85;2.78;;;;;;;22.21;68.08;100205.38;5048409;28;20401;-60
2023/06/29 10:40:22;;;;;;;3.22;2.22;;;;;;;22.33;67.94;100193.22;5048509;28;20044;-59
2023/06/29 10:42:55;;;;;;;5.68;2.45;;;;;;;22.48;67.26;100190.53;5048672;28;20025;-60
2023/06/29 10:45:21;;;;;;;3.08;1.73;;;;;;;22.60;67.55;100194.25;5048371;28;20032;-60
2023/06/29 10:47:55;;;;;;;2.00;1.70;;;;;;;22.87;66.68;100196.09;5048307;28;20025;-60
2023/06/29 10:50:31;;;;;;;2.95;1.48;;;;;;;23.11;65.96;100195.47;5048272;28;20025;-59
2023/06/29 10:53:01;;;;;;;5.30;2.35;;;;;;;23.35;65.71;100193.00;5048163;28;20025;-59
2023/06/29 10:55:37;;;;;;;4.63;2.10;;;;;;;23.50;64.74;100188.50;5048293;28;20085;-59
2023/06/29 10:58:13;;;;;;;4.03;2.10;;;;;;;23.49;63.94;100189.47;5048279;28;20108;-60
2023/06/29 11:00:39;;;;;;;3.83;2.08;;;;;;;23.41;63.84;100189.13;5048233;28;20059;-60
2023/06/29 11:03:05;;;;;;;5.13;2.00;;;;;;;23.51;64.31;100186.72;5048148;28;20424;-59
2023/06/29 11:05:33;;;;;;;2.42;1.70;;;;;;;23.57;63.46;100188.97;5048010;28;20047;-58
2023/06/29 11:07:58;;;;;;;1.95;1.33;;;;;;;23.54;63.91;100186.50;5047866;28;20059;-60
2023/06/29 11:10:24;;;;;;;2.30;1.73;;;;;;;23.63;63.91;100191.19;5047802;28;20026;-59
2023/06/29 11:12:50;;;;;;;2.95;1.73;;;;;;;23.79;62.33;100184.03;5048140;28;20021;-59
2023/06/29 11:15:19;;;;;;;2.88;2.22;;;;;;;23.85;61.36;100175.66;5047874;28;20077;-59
2023/06/29 11:17:45;;;;;;;2.28;1.45;;;;;;;23.75;61.03;100173.59;5047834;28;20113;-60
2023/06/29 11:20:13;;;;;;;2.67;1.85;;;;;;;23.74;61.36;100182.50;5047734;28;20037;-59
2023/06/29 11:22:39;;;;;;;2.15;1.77;;;;;;;23.80;61.93;100177.75;5047533;28;20033;-59